createdAt,value
2023-11-12T00:00:39.262Z,17.00
2023-11-12T00:03:25.651Z,14.57
2023-11-12T00:05:52.892Z,18.33
2023-11-12T00:08:19.326Z,16.00
2023-11-12T00:10:46.789Z,15.17
2023-11-12T00:13:14.054Z,16.10
2023-11-12T00:15:40.890Z,20.80
2023-11-12T00:18:07.435Z,15.93
2023-11-12T00:20:34.070Z,17.17
2023-11-12T00:23:01.083Z,11.73
2023-11-12T00:25:27.917Z,13.67
2023-11-12T00:27:55.102Z,14.63
2023-11-12T00:30:22.383Z,12.10
2023-11-12T00:32:49.160Z,16.00
2023-11-12T00:35:15.929Z,15.27
2023-11-12T00:37:42.810Z,18.93
2023-11-12T00:40:11.441Z,12.57
2023-11-12T00:42:39.596Z,13.77
2023-11-12T00:45:07.159Z,12.43
2023-11-12T00:47:33.521Z,15.03
2023-11-12T00:50:00.452Z,11.20
2023-11-12T00:52:27.376Z,12.43
2023-11-12T00:54:54.121Z,14.07
2023-11-12T00:57:20.573Z,14.10
2023-11-12T00:59:47.661Z,9.63
2023-11-12T01:02:16.744Z,14.67
2023-11-12T01:04:44.222Z,11.47
2023-11-12T01:07:10.677Z,12.07
2023-11-12T01:09:37.586Z,10.67
2023-11-12T01:12:04.524Z,11.60
2023-11-12T01:14:31.378Z,9.67
2023-11-12T01:16:57.708Z,9.40
2023-11-12T01:19:24.676Z,9.03
2023-11-12T01:21:51.128Z,11.77
2023-11-12T01:24:20.332Z,11.13
2023-11-12T01:26:46.743Z,10.77
2023-11-12T01:29:13.606Z,9.97
2023-11-12T01:31:40.827Z,9.10
2023-11-12T01:34:08.374Z,13.87
2023-11-12T01:36:35.507Z,11.20
2023-11-12T01:39:03.101Z,13.17
2023-11-12T01:41:29.598Z,11.53
2023-11-12T01:43:57.097Z,10.70
2023-11-12T01:46:24.311Z,12.37
2023-11-12T01:48:51.233Z,9.13
2023-11-12T01:51:18.689Z,37.90
2023-11-12T01:53:45.998Z,17.40
2023-11-12T01:56:13.197Z,11.37
2023-11-12T01:58:41.949Z,9.50
2023-11-12T02:01:09.182Z,12.50
2023-11-12T02:03:37.048Z,8.43
2023-11-12T02:06:04.239Z,9.50
2023-11-12T02:08:33.879Z,10.07
2023-11-12T02:11:07.828Z,10.47
2023-11-12T02:13:41.782Z,10.10
2023-11-12T02:16:09.865Z,8.23
2023-11-12T02:18:37.827Z,9.20
2023-11-12T02:21:05.102Z,9.23
2023-11-12T02:23:39.525Z,9.70
2023-11-12T02:26:07.329Z,9.67
2023-11-12T02:28:35.166Z,9.47
2023-11-12T02:31:02.230Z,7.77
2023-11-12T02:33:29.824Z,9.13
2023-11-12T02:35:57.447Z,8.70
2023-11-12T02:38:25.040Z,8.43
2023-11-12T02:40:52.298Z,8.93
2023-11-12T02:43:20.791Z,7.93
2023-11-12T02:45:50.615Z,7.67
2023-11-12T02:48:18.397Z,8.70
2023-11-12T02:50:45.394Z,8.83
2023-11-12T02:53:12.385Z,7.57
2023-11-12T02:55:38.964Z,6.03
2023-11-12T02:58:06.249Z,8.60
2023-11-12T03:00:33.715Z,8.27
2023-11-12T03:03:02.487Z,7.83
2023-11-12T03:05:31.923Z,8.07
2023-11-12T03:07:58.686Z,9.67
2023-11-12T03:10:25.634Z,9.60
2023-11-12T03:12:54.065Z,7.77
2023-11-12T03:15:20.637Z,7.27
2023-11-12T03:17:47.335Z,5.80
2023-11-12T03:20:14.736Z,8.20
2023-11-12T03:22:42.644Z,8.47
2023-11-12T03:25:10.336Z,7.10
2023-11-12T03:27:37.580Z,7.00
2023-11-12T03:30:05.486Z,7.97
2023-11-12T03:32:32.759Z,8.33
2023-11-12T03:35:01.239Z,7.13
2023-11-12T03:37:28.359Z,6.23
2023-11-12T03:39:54.824Z,6.27
2023-11-12T03:42:22.901Z,7.03
2023-11-12T03:44:49.918Z,7.10
2023-11-12T03:47:19.824Z,5.93
2023-11-12T03:49:46.279Z,6.50
2023-11-12T03:52:13.212Z,6.63
2023-11-12T03:54:39.681Z,7.20
2023-11-12T03:57:06.851Z,8.03
2023-11-12T03:59:36.240Z,6.17
2023-11-12T04:02:04.694Z,7.10
2023-11-12T04:04:31.153Z,6.63
2023-11-12T04:06:58.572Z,8.60
2023-11-12T04:09:25.060Z,8.43
2023-11-12T04:11:51.846Z,7.70
2023-11-12T04:14:18.316Z,7.23
2023-11-12T04:16:44.926Z,6.17
2023-11-12T04:19:12.658Z,7.10
2023-11-12T04:21:39.331Z,6.70
2023-11-12T04:24:06.507Z,5.90
2023-11-12T04:26:34.017Z,6.10
2023-11-12T04:29:03.689Z,7.43
2023-11-12T04:31:31.208Z,6.20
2023-11-12T04:33:57.630Z,7.43
2023-11-12T04:36:26.033Z,9.13
2023-11-12T04:38:52.410Z,6.57
2023-11-12T04:41:21.268Z,6.17
2023-11-12T04:43:47.647Z,7.87
2023-11-12T04:46:14.433Z,6.63
2023-11-12T04:48:41.597Z,6.97
2023-11-12T04:51:08.648Z,6.70
2023-11-12T04:53:34.984Z,6.73
2023-11-12T04:56:05.776Z,5.10
2023-11-12T04:58:32.172Z,6.73
2023-11-12T05:00:59.150Z,6.70
2023-11-12T05:03:26.295Z,6.37
2023-11-12T05:05:53.134Z,7.23
2023-11-12T05:08:20.078Z,6.43
2023-11-12T05:10:47.471Z,8.73
2023-11-12T05:13:14.213Z,6.00
2023-11-12T05:15:41.597Z,7.70
2023-11-12T05:18:08.378Z,7.37
2023-11-12T05:20:35.331Z,8.07
2023-11-12T05:23:02.336Z,7.87
2023-11-12T05:25:29.599Z,9.93
2023-11-12T05:27:56.374Z,8.60
2023-11-12T05:30:26.188Z,7.57
2023-11-12T05:32:52.857Z,7.47
2023-11-12T05:35:20.063Z,6.73
2023-11-12T05:37:49.438Z,8.77
2023-11-12T05:40:18.701Z,8.13
2023-11-12T05:42:45.076Z,6.67
2023-11-12T05:45:12.750Z,6.23
2023-11-12T05:47:39.165Z,6.40
2023-11-12T05:50:06.848Z,7.57
2023-11-12T05:52:33.418Z,7.60
2023-11-12T05:55:00.270Z,6.87
2023-11-12T05:57:27.476Z,7.87
2023-11-12T05:59:54.392Z,8.13
2023-11-12T06:02:20.897Z,9.47
2023-11-12T06:04:47.687Z,6.43
2023-11-12T06:07:14.171Z,7.20
2023-11-12T06:09:41.540Z,6.77
2023-11-12T06:12:08.407Z,8.67
2023-11-12T06:14:37.035Z,10.40
2023-11-12T06:17:04.921Z,6.90
2023-11-12T06:19:31.786Z,10.00
2023-11-12T06:21:58.439Z,7.57
2023-11-12T06:24:25.231Z,9.93
2023-11-12T06:26:51.948Z,8.40
2023-11-12T06:29:18.697Z,8.23
2023-11-12T06:31:45.097Z,7.23
2023-11-12T06:34:12.444Z,9.23
2023-11-12T06:36:39.640Z,10.10
2023-11-12T06:39:06.360Z,8.93
2023-11-12T06:41:33.608Z,7.60
2023-11-12T06:44:00.341Z,8.33
2023-11-12T06:46:26.890Z,9.60
2023-11-12T06:48:53.661Z,10.90
2023-11-12T06:51:24.661Z,10.97
2023-11-12T06:53:52.220Z,13.20
2023-11-12T06:56:18.575Z,10.13
2023-11-12T06:58:45.453Z,9.83
2023-11-12T07:01:13.577Z,12.57
2023-11-12T07:03:40.435Z,11.87
2023-11-12T07:06:07.169Z,11.17
2023-11-12T07:08:34.169Z,10.73
2023-11-12T07:11:00.679Z,10.17
2023-11-12T07:13:27.504Z,10.43
2023-11-12T07:15:55.400Z,10.50
2023-11-12T07:18:22.491Z,10.20
2023-11-12T07:20:48.856Z,11.07
2023-11-12T07:23:16.257Z,11.40
2023-11-12T07:25:42.903Z,11.63
2023-11-12T07:28:09.708Z,10.43
2023-11-12T07:30:38.643Z,9.63
2023-11-12T07:33:08.829Z,10.03
2023-11-12T07:35:35.306Z,11.07
2023-11-12T07:38:02.212Z,12.70
2023-11-12T07:40:28.592Z,12.73
2023-11-12T07:42:57.191Z,10.70
2023-11-12T07:45:31.466Z,10.40
2023-11-12T07:48:01.955Z,12.17
2023-11-12T07:50:28.801Z,10.80
2023-11-12T07:52:55.949Z,10.37
2023-11-12T07:55:22.375Z,11.27
2023-11-12T07:57:49.558Z,9.57
2023-11-12T08:00:17.219Z,10.40
2023-11-12T08:02:46.208Z,8.80
2023-11-12T08:05:12.931Z,10.87
2023-11-12T08:07:40.917Z,9.87
2023-11-12T08:10:08.928Z,9.30
2023-11-12T08:12:36.043Z,11.13
2023-11-12T08:15:05.566Z,11.00
2023-11-12T08:17:32.897Z,12.87
2023-11-12T08:19:59.425Z,9.97
2023-11-12T08:22:26.347Z,11.60
2023-11-12T08:24:55.201Z,11.17
2023-11-12T08:27:23.241Z,10.97
2023-11-12T08:29:50.667Z,10.07
2023-11-12T08:32:18.276Z,10.23
2023-11-12T08:34:46.346Z,10.13
2023-11-12T08:37:13.618Z,9.63
2023-11-12T08:39:41.636Z,8.70
2023-11-12T08:42:08.569Z,11.80
2023-11-12T08:44:35.628Z,8.67
2023-11-12T08:47:03.896Z,10.10
2023-11-12T08:49:32.798Z,8.07
2023-11-12T08:52:00.403Z,9.60
2023-11-12T08:54:26.987Z,8.90
2023-11-12T08:56:53.905Z,10.80
2023-11-12T08:59:20.533Z,9.73
2023-11-12T09:01:47.191Z,8.90
2023-11-12T09:04:13.588Z,8.20
2023-11-12T09:06:40.639Z,8.97
2023-11-12T09:09:09.446Z,9.97
2023-11-12T09:11:37.144Z,11.20
2023-11-12T09:14:05.872Z,13.40
2023-11-12T09:16:33.953Z,10.53
2023-11-12T09:19:00.742Z,11.13
2023-11-12T09:21:31.625Z,9.63
2023-11-12T09:23:58.566Z,10.20
2023-11-12T09:26:25.549Z,9.80
2023-11-12T09:28:52.707Z,10.63
2023-11-12T09:31:20.167Z,10.50
2023-11-12T09:33:47.950Z,10.60
2023-11-12T09:36:16.178Z,10.60
2023-11-12T09:38:42.789Z,9.00
2023-11-12T09:41:10.483Z,11.43
2023-11-12T09:43:37.284Z,11.20
2023-11-12T09:46:08.858Z,8.03
2023-11-12T09:48:40.490Z,10.20
2023-11-12T09:51:10.279Z,8.43
2023-11-12T09:53:37.916Z,8.93
2023-11-12T09:56:11.311Z,9.80
2023-11-12T09:58:43.406Z,10.97
2023-11-12T10:01:11.957Z,8.47
2023-11-12T10:03:39.570Z,9.47
2023-11-12T10:06:07.935Z,11.77
2023-11-12T10:08:38.933Z,8.73
2023-11-12T10:11:31.420Z,11.10
2023-11-12T10:14:01.150Z,8.07
2023-11-12T10:16:32.109Z,9.63
2023-11-12T10:19:17.156Z,8.10
2023-11-12T10:21:58.770Z,9.80
2023-11-12T10:24:29.456Z,6.83
2023-11-12T10:27:05.562Z,6.73
2023-11-12T10:29:32.540Z,8.33
2023-11-12T10:31:59.938Z,7.20
2023-11-12T10:34:27.743Z,11.00
2023-11-12T10:37:14.867Z,7.40
2023-11-12T10:39:44.161Z,10.73
2023-11-12T10:42:25.373Z,6.70
2023-11-12T10:44:56.431Z,7.30
2023-11-12T10:47:25.896Z,6.10
2023-11-12T10:49:53.407Z,7.37
2023-11-12T10:52:20.267Z,5.30
2023-11-12T10:54:47.652Z,6.53
2023-11-12T10:57:17.816Z,8.77
2023-11-12T10:59:45.579Z,6.30
2023-11-12T11:02:19.825Z,6.33
2023-11-12T11:04:47.778Z,7.00
2023-11-12T11:07:15.478Z,5.33
2023-11-12T11:09:43.122Z,9.23
2023-11-12T11:12:14.180Z,7.53
2023-11-12T11:14:40.709Z,10.20
2023-11-12T11:17:08.851Z,7.63
2023-11-12T11:19:45.166Z,6.87
2023-11-12T11:22:32.974Z,8.10
2023-11-12T11:25:20.660Z,5.37
2023-11-12T11:27:48.237Z,5.33
2023-11-12T11:30:16.775Z,6.90
2023-11-12T11:32:52.946Z,6.27
2023-11-12T11:35:21.679Z,5.60
2023-11-12T11:38:09.280Z,7.10
2023-11-12T11:40:37.681Z,5.93
2023-11-12T11:43:23.881Z,7.50
2023-11-12T11:46:06.428Z,4.47
2023-11-12T11:48:34.000Z,7.00
2023-11-12T11:51:02.493Z,4.90
2023-11-12T11:53:30.456Z,5.83
2023-11-12T11:56:07.033Z,7.80
2023-11-12T11:58:52.960Z,6.90
2023-11-12T12:01:20.090Z,5.33
2023-11-12T12:03:47.338Z,7.37
2023-11-12T12:06:18.569Z,5.80
2023-11-12T12:08:52.977Z,6.73
2023-11-12T12:11:25.449Z,5.37
2023-11-12T12:14:01.670Z,5.70
2023-11-12T12:16:30.060Z,5.70
2023-11-12T12:18:57.961Z,6.40
2023-11-12T12:21:25.454Z,6.13
2023-11-12T12:23:53.035Z,5.80
2023-11-12T12:26:25.200Z,5.20
2023-11-12T12:28:52.947Z,6.20
2023-11-12T12:31:20.013Z,5.10
2023-11-12T12:34:08.735Z,8.13
2023-11-12T12:36:36.156Z,5.60
2023-11-12T12:39:07.148Z,3.53
2023-11-12T12:41:33.565Z,4.53
2023-11-12T12:44:01.473Z,4.37
2023-11-12T12:46:48.120Z,4.07
2023-11-12T12:49:35.003Z,5.03
2023-11-12T12:52:03.298Z,5.83
2023-11-12T12:54:31.193Z,5.60
2023-11-12T12:57:04.227Z,4.63
2023-11-12T12:59:35.627Z,7.13
2023-11-12T13:02:03.393Z,4.30
2023-11-12T13:04:31.439Z,5.17
2023-11-12T13:07:01.018Z,5.93
2023-11-12T13:09:30.245Z,6.53
2023-11-12T13:11:58.384Z,5.40
2023-11-12T13:14:26.160Z,8.17
2023-11-12T13:16:54.493Z,4.77
2023-11-12T13:19:23.721Z,5.70
2023-11-12T13:21:57.040Z,6.97
2023-11-12T13:24:29.716Z,5.17
2023-11-12T13:26:56.691Z,5.07
2023-11-12T13:29:23.824Z,5.30
2023-11-12T13:31:51.731Z,5.53
2023-11-12T13:34:19.058Z,4.97
2023-11-12T13:36:47.197Z,6.63
2023-11-12T13:39:15.089Z,4.50
2023-11-12T13:41:41.965Z,4.80
2023-11-12T13:44:09.907Z,4.50
2023-11-12T13:46:37.067Z,3.00
2023-11-12T13:49:06.024Z,4.00
2023-11-12T13:51:35.512Z,3.50
2023-11-12T13:54:05.739Z,4.70
2023-11-12T13:56:35.924Z,9.37
2023-11-12T13:59:03.543Z,6.20
2023-11-12T14:01:32.709Z,4.80
2023-11-12T14:03:59.841Z,3.20
2023-11-12T14:06:26.740Z,4.53
2023-11-12T14:08:55.652Z,3.63
2023-11-12T14:11:22.865Z,5.50
2023-11-12T14:13:51.579Z,4.77
2023-11-12T14:16:24.713Z,4.30
2023-11-12T14:18:53.945Z,3.57
2023-11-12T14:21:22.302Z,4.00
2023-11-12T14:23:51.865Z,4.20
2023-11-12T14:26:20.369Z,4.27
2023-11-12T14:28:49.541Z,4.77
2023-11-12T14:31:17.965Z,5.30
2023-11-12T14:33:46.449Z,4.90
2023-11-12T14:36:13.135Z,4.00
2023-11-12T14:38:41.170Z,4.40
2023-11-12T14:41:09.036Z,4.60
2023-11-12T14:43:38.548Z,4.63
2023-11-12T14:46:06.249Z,3.10
2023-11-12T14:48:36.155Z,7.20
2023-11-12T14:51:05.779Z,5.00
2023-11-12T14:53:32.996Z,7.83
2023-11-12T14:55:59.436Z,6.37
2023-11-12T14:58:26.823Z,5.33
2023-11-12T15:00:55.078Z,5.13
2023-11-12T15:03:23.569Z,5.70
2023-11-12T15:05:49.951Z,4.70
2023-11-12T15:08:16.571Z,5.47
2023-11-12T15:10:43.593Z,6.30
2023-11-12T15:13:10.609Z,4.67
2023-11-12T15:15:37.221Z,6.77
2023-11-12T15:18:04.658Z,4.90
2023-11-12T15:20:31.112Z,7.53
2023-11-12T15:22:58.039Z,4.80
2023-11-12T15:25:25.459Z,5.70
2023-11-12T15:27:53.945Z,5.33
2023-11-12T15:30:21.144Z,7.20
2023-11-12T15:32:48.383Z,5.67
2023-11-12T15:35:15.652Z,5.60
2023-11-12T15:37:44.308Z,5.63
2023-11-12T15:40:17.844Z,5.03
2023-11-12T15:42:47.288Z,6.00
2023-11-12T15:45:17.899Z,4.43
2023-11-12T15:47:46.547Z,6.60
2023-11-12T15:50:14.186Z,6.40
2023-11-12T15:52:42.562Z,6.80
2023-11-12T15:55:12.960Z,6.97
2023-11-12T15:57:41.235Z,5.60
2023-11-12T16:00:13.692Z,7.17
2023-11-12T16:02:41.559Z,6.47
2023-11-12T16:05:10.437Z,8.20
2023-11-12T16:07:39.891Z,8.10
2023-11-12T16:10:07.645Z,6.57
2023-11-12T16:12:34.825Z,6.43
2023-11-12T16:15:04.990Z,7.03
2023-11-12T16:17:32.617Z,7.00
2023-11-12T16:20:00.746Z,7.33
2023-11-12T16:22:28.259Z,7.70
2023-11-12T16:24:54.700Z,7.37
2023-11-12T16:27:22.461Z,6.53
2023-11-12T16:29:49.290Z,8.17
2023-11-12T16:32:20.002Z,9.20
2023-11-12T16:34:46.592Z,7.53
2023-11-12T16:37:13.425Z,7.47
2023-11-12T16:39:45.264Z,7.97
2023-11-12T16:42:13.707Z,11.43
2023-11-12T16:44:41.669Z,15.17
2023-11-12T16:47:09.636Z,11.23
2023-11-12T16:49:37.594Z,12.37
2023-11-12T16:52:05.783Z,15.57
2023-11-12T16:54:35.010Z,14.23
2023-11-12T16:57:10.233Z,16.83
2023-11-12T16:59:41.636Z,12.67
2023-11-12T17:02:11.079Z,12.97
2023-11-12T17:04:38.679Z,10.83
2023-11-12T17:07:08.925Z,11.77
2023-11-12T17:09:35.923Z,7.87
2023-11-12T17:12:04.334Z,9.50
2023-11-12T17:14:31.332Z,10.17
2023-11-12T17:16:58.420Z,9.93
2023-11-12T17:19:25.484Z,7.90
2023-11-12T17:21:54.344Z,9.90
2023-11-12T17:24:23.603Z,11.83
2023-11-12T17:26:54.169Z,10.07
2023-11-12T17:29:21.545Z,10.27
2023-11-12T17:31:49.483Z,14.73
2023-11-12T17:34:16.042Z,12.10
2023-11-12T17:36:43.330Z,13.50
2023-11-12T17:39:10.390Z,18.50
2023-11-12T17:41:38.128Z,15.40
2023-11-12T17:44:05.253Z,16.57
2023-11-12T17:46:32.338Z,19.63
2023-11-12T17:49:01.318Z,16.37
2023-11-12T17:51:28.529Z,19.90
2023-11-12T17:53:55.529Z,22.27
2023-11-12T17:56:23.091Z,22.53
2023-11-12T17:58:50.410Z,22.37
2023-11-12T18:01:18.946Z,20.37
2023-11-12T18:03:46.419Z,22.17
2023-11-12T18:06:16.827Z,19.77
2023-11-12T18:08:43.418Z,24.20
2023-11-12T18:11:13.309Z,21.40
2023-11-12T18:13:41.600Z,23.23
2023-11-12T18:16:10.512Z,24.83
2023-11-12T18:18:40.159Z,25.53
2023-11-12T18:21:07.026Z,22.37
2023-11-12T18:23:34.793Z,23.23
2023-11-12T18:26:01.963Z,23.67
2023-11-12T18:28:29.135Z,21.70
2023-11-12T18:30:56.469Z,26.70
2023-11-12T18:33:24.148Z,23.43
2023-11-12T18:35:51.314Z,21.97
2023-11-12T18:38:18.419Z,20.37
2023-11-12T18:40:47.532Z,18.20
2023-11-12T18:43:15.802Z,22.03
2023-11-12T18:45:42.796Z,18.23
2023-11-12T18:48:09.606Z,18.10
2023-11-12T18:50:37.029Z,19.80
2023-11-12T18:53:03.747Z,15.33
2023-11-12T18:55:31.868Z,13.47
2023-11-12T18:57:59.934Z,14.63
2023-11-12T19:00:26.979Z,14.60
2023-11-12T19:02:53.834Z,14.27
2023-11-12T19:05:21.533Z,14.47
2023-11-12T19:07:48.949Z,13.80
2023-11-12T19:10:16.980Z,14.57
2023-11-12T19:12:44.786Z,16.77
2023-11-12T19:15:13.433Z,12.77
2023-11-12T19:17:44.659Z,12.90
2023-11-12T19:20:15.904Z,12.50
2023-11-12T19:22:44.838Z,10.50
2023-11-12T19:25:14.682Z,9.77
2023-11-12T19:27:45.162Z,10.37
2023-11-12T19:30:15.670Z,13.33
2023-11-12T19:32:44.393Z,9.20
2023-11-12T19:35:13.856Z,13.63
2023-11-12T19:37:40.944Z,12.03
2023-11-12T19:40:08.981Z,9.67
2023-11-12T19:42:36.401Z,11.27
2023-11-12T19:45:06.878Z,10.90
2023-11-12T19:47:34.022Z,11.57
2023-11-12T19:50:01.087Z,11.13
2023-11-12T19:52:28.930Z,11.20
2023-11-12T19:54:55.737Z,8.83
2023-11-12T19:57:22.836Z,8.67
2023-11-12T19:59:51.959Z,9.87
2023-11-12T20:02:18.685Z,10.63
2023-11-12T20:04:46.276Z,8.03
2023-11-12T20:07:13.317Z,7.27
2023-11-12T20:09:40.518Z,9.70
2023-11-12T20:12:07.584Z,7.60
2023-11-12T20:14:37.185Z,7.50
2023-11-12T20:17:04.119Z,10.07
2023-11-12T20:19:31.183Z,8.43
2023-11-12T20:21:57.852Z,9.67
2023-11-12T20:24:26.290Z,10.87
2023-11-12T20:26:54.912Z,9.17
2023-11-12T20:29:22.580Z,7.67
2023-11-12T20:31:54.393Z,11.57
2023-11-12T20:34:22.697Z,9.33
2023-11-12T20:36:50.975Z,11.67
2023-11-12T20:39:20.394Z,12.37
2023-11-12T20:41:50.327Z,14.87
2023-11-12T20:44:17.344Z,11.23
2023-11-12T20:46:45.485Z,12.93
2023-11-12T20:49:17.815Z,10.73
2023-11-12T20:51:46.159Z,11.63
2023-11-12T20:54:18.568Z,13.67
2023-11-12T20:56:45.829Z,9.47
2023-11-12T20:59:13.058Z,9.53
2023-11-12T21:01:40.140Z,10.13
2023-11-12T21:04:11.553Z,11.63
2023-11-12T21:06:41.550Z,12.10
2023-11-12T21:09:09.039Z,10.70
2023-11-12T21:11:39.689Z,10.80
2023-11-12T21:14:11.772Z,9.53
2023-11-12T21:16:39.130Z,10.33
2023-11-12T21:19:06.890Z,15.03
2023-11-12T21:21:33.778Z,10.30
2023-11-12T21:24:05.477Z,13.73
2023-11-12T21:26:33.962Z,16.20
2023-11-12T21:29:01.025Z,14.67
2023-11-12T21:31:27.803Z,15.83
2023-11-12T21:33:54.819Z,13.20
2023-11-12T21:36:21.591Z,14.67
2023-11-12T21:38:48.568Z,13.77
2023-11-12T21:41:15.190Z,9.87
2023-11-12T21:43:42.272Z,12.27
2023-11-12T21:46:10.034Z,10.53
2023-11-12T21:48:40.203Z,10.23
2023-11-12T21:51:07.184Z,13.27
2023-11-12T21:53:36.033Z,10.60
2023-11-12T21:56:03.973Z,10.60
2023-11-12T21:58:31.482Z,11.73
2023-11-12T22:00:58.496Z,11.33
2023-11-12T22:03:26.858Z,10.83
2023-11-12T22:05:54.337Z,9.23
2023-11-12T22:08:22.381Z,14.70
2023-11-12T22:10:52.100Z,16.30
2023-11-12T22:13:19.293Z,14.47
2023-11-12T22:15:47.695Z,13.40
2023-11-12T22:18:14.842Z,13.90
2023-11-12T22:20:42.040Z,13.33
2023-11-12T22:23:10.790Z,12.03
2023-11-12T22:25:38.002Z,13.97
2023-11-12T22:28:06.018Z,13.00
2023-11-12T22:30:32.630Z,14.67
2023-11-12T22:32:59.487Z,12.57
2023-11-12T22:35:25.918Z,15.83
2023-11-12T22:37:53.025Z,14.03
2023-11-12T22:40:20.470Z,14.57
2023-11-12T22:42:47.365Z,12.13
2023-11-12T22:45:14.026Z,15.17
2023-11-12T22:47:42.125Z,12.13
2023-11-12T22:50:09.640Z,10.77
2023-11-12T22:52:36.824Z,14.50
2023-11-12T22:55:04.002Z,12.87
2023-11-12T22:57:32.955Z,13.93
2023-11-12T23:00:05.185Z,11.33
2023-11-12T23:02:32.871Z,13.40
2023-11-12T23:04:59.296Z,13.30
2023-11-12T23:07:27.213Z,11.67
2023-11-12T23:09:53.644Z,11.57
2023-11-12T23:12:21.125Z,13.13
2023-11-12T23:14:51.528Z,13.93
2023-11-12T23:17:22.121Z,14.57
2023-11-12T23:19:48.689Z,11.33
2023-11-12T23:22:16.041Z,12.77
2023-11-12T23:24:42.494Z,12.47
2023-11-12T23:27:09.370Z,10.30
2023-11-12T23:29:38.807Z,15.40
2023-11-12T23:32:09.683Z,9.47
2023-11-12T23:34:37.261Z,10.87
2023-11-12T23:37:07.095Z,10.33
2023-11-12T23:39:33.566Z,10.27
2023-11-12T23:42:00.304Z,12.13
2023-11-12T23:44:26.653Z,9.73
2023-11-12T23:46:53.259Z,8.53
2023-11-12T23:49:19.644Z,7.23
2023-11-12T23:51:46.362Z,10.43
2023-11-12T23:54:13.064Z,7.77
2023-11-12T23:56:39.746Z,8.87
2023-11-12T23:59:06.522Z,10.43
